PABI/DJN METAR and TAF weather

Enter ICAO airport designator
Station Type Date Time Source
PABI METAR 2019/08/19 06:53 UTC NOAA

PABI 190653Z AUTO 11006KT 10SM CLR 06/03 A3021 RMK SLP244 T00610028 TSNO $ VIA AUTODIAL


Station Type Date Time Source
PABI Decoded METAR 2019/08/19 06:53 UTC NOAA

Station name not available
Aug 19, 2019 - 02:53 AM EDT / 2019.08.19 0653 UTC
Wind: from the ESE (110 degrees) at 7 MPH (6 KT):0
Visibility: 10 mile(s):0
Sky conditions: clear
Temperature: 43.0 F (6.1 C)
Dew Point: 37.0 F (2.8 C)
Relative Humidity: 79%
Pressure (altimeter): 30.21 in. Hg (1023 hPa)
ob: PABI 190653Z AUTO 11006KT 10SM CLR 06/03 A3021 RMK SLP244 T00610028 TSNO VIA AUTODIAL
cycle: 7

Station Type Date Time Source
PABI TAF 2019/08/17 07:57 UTC NOAA

TAF TAF COR PABI 170750Z 1707/1812 29010G20KT 9999 SCT021 QNH3016INS
BECMG 1711/1712 28010G15KT 8000 -RA BKN022 QNH3019INS
BECMG 1716/1717 30009KT 9000 BR SCT009 QNH3038INS
BECMG 1719/1720 VRB06KT 9999 NSW FEW023 QNH3041INS TX12/1800Z TN07/1714Z LAST NO
AMDS AFT 1707 NEXT 1914

Example: see airport list